createdAt,value
2018-07-15T00:01:00.387Z,82.1523
2018-07-15T00:02:05.551Z,82.1523
2018-07-15T00:03:11.094Z,82.1523
2018-07-15T00:04:16.561Z,82.4034
2018-07-15T00:05:21.718Z,82.1523
2018-07-15T00:06:41.335Z,82.6544
2018-07-15T00:07:46.513Z,82.8235
2018-07-15T00:08:51.984Z,81.9013
2018-07-15T00:09:57.330Z,82.6544
2018-07-15T00:11:02.199Z,82.6544
2018-07-15T00:12:06.900Z,82.4034
2018-07-15T00:13:12.136Z,82.4034
2018-07-15T00:14:17.594Z,82.6544
2018-07-15T00:15:22.532Z,82.4034
2018-07-15T00:16:27.984Z,81.9013
2018-07-15T00:17:33.414Z,82.4034
2018-07-15T00:18:39.140Z,82.1523
2018-07-15T00:19:44.657Z,82.8235
2018-07-15T00:20:49.829Z,82.8235
2018-07-15T00:21:55.383Z,82.8235
2018-07-15T00:23:00.859Z,82.8235
2018-07-15T00:24:05.729Z,82.1523
2018-07-15T00:25:11.234Z,82.1523
2018-07-15T00:26:16.692Z,82.6544
2018-07-15T00:27:22.154Z,82.6544
2018-07-15T00:28:41.954Z,82.1523
2018-07-15T00:29:46.835Z,81.9013
2018-07-15T00:30:52.724Z,82.6544
2018-07-15T00:31:57.905Z,82.8235
2018-07-15T00:33:03.385Z,82.8235
2018-07-15T00:34:08.792Z,82.1523
2018-07-15T00:35:14.228Z,82.1523
2018-07-15T00:36:19.672Z,83.0745
2018-07-15T00:37:25.591Z,82.4034
2018-07-15T00:38:30.205Z,82.6544
2018-07-15T00:39:35.597Z,82.4034
2018-07-15T00:40:41.145Z,83.8302
2018-07-15T00:41:46.324Z,82.8235
2018-07-15T00:42:51.895Z,83.0745
2018-07-15T00:43:57.424Z,82.8235
2018-07-15T00:45:02.665Z,83.0745
2018-07-15T00:46:08.417Z,82.8235
2018-07-15T00:47:13.678Z,82.4034
2018-07-15T00:48:19.117Z,82.4034
2018-07-15T00:49:24.617Z,82.6544
2018-07-15T00:50:29.840Z,82.6544
2018-07-15T00:51:35.256Z,82.6544
2018-07-15T00:52:40.501Z,82.8235
2018-07-15T00:53:45.938Z,82.8235
2018-07-15T00:54:51.783Z,83.0745
2018-07-15T00:55:57.268Z,82.8235
2018-07-15T00:57:01.928Z,82.6544
2018-07-15T00:58:07.112Z,84.0812
2018-07-15T00:59:12.283Z,82.8235
2018-07-15T01:00:17.502Z,82.8235
2018-07-15T01:01:23.282Z,82.6544
2018-07-15T01:02:28.157Z,82.6544
2018-07-15T01:03:33.289Z,82.8235
2018-07-15T01:04:38.448Z,82.1523
2018-07-15T01:05:43.907Z,82.8235
2018-07-15T01:06:49.455Z,82.6544
2018-07-15T01:07:54.923Z,83.8302
2018-07-15T01:09:00.096Z,82.6544
2018-07-15T01:10:05.818Z,82.8235
2018-07-15T01:11:10.690Z,82.8235
2018-07-15T01:12:15.933Z,83.8302
2018-07-15T01:13:20.867Z,82.8235
2018-07-15T01:14:25.492Z,83.5792
2018-07-15T01:15:31.298Z,83.0745
2018-07-15T01:16:36.193Z,82.6544
2018-07-15T01:17:41.339Z,82.4034
2018-07-15T01:18:46.666Z,82.6544
2018-07-15T01:19:51.886Z,82.8235
2018-07-15T01:20:56.499Z,82.1523
2018-07-15T01:22:02.041Z,82.6544
2018-07-15T01:23:06.964Z,82.8235
2018-07-15T01:24:12.227Z,84.0812
2018-07-15T01:25:17.643Z,83.5792
2018-07-15T01:26:22.810Z,83.0745
2018-07-15T01:27:28.131Z,84.0812
2018-07-15T01:28:32.737Z,83.5792
2018-07-15T01:29:38.265Z,83.5792
2018-07-15T01:30:43.697Z,83.5792
2018-07-15T01:31:49.144Z,83.5792
2018-07-15T01:32:54.620Z,83.0745
2018-07-15T01:34:00.211Z,83.5792
2018-07-15T01:35:04.828Z,82.8235
2018-07-15T01:36:10.354Z,82.8235
2018-07-15T01:37:15.588Z,82.8235
2018-07-15T01:38:20.745Z,82.4034
2018-07-15T01:39:41.156Z,83.0745
2018-07-15T01:40:46.150Z,82.8235
2018-07-15T01:41:51.590Z,82.8235
2018-07-15T01:42:57.303Z,83.8302
2018-07-15T01:44:01.976Z,83.5792
2018-07-15T01:45:06.870Z,83.5792
2018-07-15T01:46:12.109Z,83.0745
2018-07-15T01:47:17.265Z,83.5792
2018-07-15T01:48:22.774Z,83.0745
2018-07-15T01:49:28.624Z,84.0812
2018-07-15T01:50:33.518Z,84.0812
2018-07-15T01:51:38.941Z,84.0812
2018-07-15T01:52:43.280Z,83.5792
2018-07-15T01:53:48.722Z,83.8302
2018-07-15T01:54:54.131Z,83.0745
2018-07-15T01:55:59.584Z,83.0745
2018-07-15T01:57:04.821Z,83.8302
2018-07-15T01:58:09.974Z,84.5859
2018-07-15T01:59:15.253Z,85.0034
2018-07-15T02:00:20.685Z,85.2571
2018-07-15T02:01:25.584Z,84.5859
2018-07-15T02:02:31.030Z,85.0034
2018-07-15T02:03:36.597Z,85.5081
2018-07-15T02:04:42.030Z,85.7591
2018-07-15T02:05:47.539Z,85.2571
2018-07-15T02:06:53.101Z,85.0034
2018-07-15T02:07:57.985Z,85.2571
2018-07-15T02:09:02.893Z,84.3323
2018-07-15T02:10:08.176Z,84.0812
2018-07-15T02:11:13.687Z,85.0034
2018-07-15T02:12:19.251Z,84.5859
2018-07-15T02:13:25.043Z,84.7524
2018-07-15T02:14:29.938Z,84.5859
2018-07-15T02:15:35.640Z,85.5081
2018-07-15T02:16:40.804Z,84.7524
2018-07-15T02:17:45.988Z,85.2571
2018-07-15T02:18:51.600Z,84.7524
2018-07-15T02:19:56.464Z,85.0034
2018-07-15T02:21:01.403Z,83.8302
2018-07-15T02:22:06.534Z,85.2571
2018-07-15T02:23:11.723Z,85.0034
2018-07-15T02:24:16.700Z,85.2571
2018-07-15T02:25:22.406Z,84.7524
2018-07-15T02:26:27.857Z,85.0034
2018-07-15T02:27:34.537Z,85.0034
2018-07-15T02:28:40.053Z,85.2571
2018-07-15T02:29:45.215Z,85.0034
2018-07-15T02:30:50.994Z,85.0034
2018-07-15T02:31:56.538Z,85.0034
2018-07-15T02:33:01.452Z,85.0034
2018-07-15T02:34:06.635Z,85.2571
2018-07-15T02:35:11.538Z,85.2571
2018-07-15T02:36:16.119Z,85.0034
2018-07-15T02:37:21.015Z,84.0812
2018-07-15T02:38:25.621Z,85.0034
2018-07-15T02:39:31.503Z,84.0812
2018-07-15T02:40:37.081Z,85.0034
2018-07-15T02:41:42.301Z,84.5859
2018-07-15T02:42:47.983Z,84.8369
2018-07-15T02:43:52.609Z,85.5081
2018-07-15T02:44:57.761Z,85.2571
2018-07-15T02:46:02.609Z,85.7591
2018-07-15T02:47:07.768Z,84.8369
2018-07-15T02:48:13.216Z,85.0034
2018-07-15T02:49:18.490Z,85.5081
2018-07-15T02:50:23.928Z,85.2571
2018-07-15T02:51:29.100Z,85.7591
2018-07-15T02:52:34.428Z,85.5081
2018-07-15T02:53:39.590Z,85.0034
2018-07-15T02:54:44.632Z,85.2571
2018-07-15T02:55:50.052Z,85.0034
2018-07-15T02:56:55.295Z,86.0128
2018-07-15T02:58:01.156Z,85.5081
2018-07-15T02:59:05.187Z,85.2571
2018-07-15T03:00:09.613Z,86.0128
2018-07-15T03:01:15.118Z,86.5148
2018-07-15T03:02:20.660Z,85.0034
2018-07-15T03:03:40.890Z,86.0128
2018-07-15T03:04:46.048Z,85.7591
2018-07-15T03:05:51.214Z,86.5148
2018-07-15T03:06:56.972Z,86.2638
2018-07-15T03:08:02.472Z,86.5148
2018-07-15T03:09:07.339Z,85.7591
2018-07-15T03:10:12.784Z,85.5081
2018-07-15T03:11:17.676Z,86.2638
2018-07-15T03:12:22.611Z,86.2638
2018-07-15T03:13:28.432Z,85.2571
2018-07-15T03:14:33.864Z,86.0128
2018-07-15T03:15:39.609Z,86.5148
2018-07-15T03:16:44.820Z,86.5148
2018-07-15T03:17:49.962Z,86.5148
2018-07-15T03:18:55.537Z,86.9349
2018-07-15T03:20:00.721Z,87.186
2018-07-15T03:21:05.884Z,86.2638
2018-07-15T03:22:11.678Z,86.2638
2018-07-15T03:23:16.728Z,86.0128
2018-07-15T03:24:21.609Z,86.0128
2018-07-15T03:25:27.470Z,86.2638
2018-07-15T03:26:32.512Z,86.5148
2018-07-15T03:27:38.529Z,86.6839
2018-07-15T03:28:43.691Z,85.7591
2018-07-15T03:29:49.245Z,86.2638
2018-07-15T03:30:55.210Z,86.0128
2018-07-15T03:32:00.660Z,86.0128
2018-07-15T03:33:06.172Z,86.0128
2018-07-15T03:34:12.438Z,85.5081
2018-07-15T03:35:17.845Z,85.5081
2018-07-15T03:36:22.786Z,85.7591
2018-07-15T03:37:28.555Z,86.5148
2018-07-15T03:38:33.990Z,86.6839
2018-07-15T03:39:39.888Z,86.9349
2018-07-15T03:40:44.804Z,86.5148
2018-07-15T03:41:49.691Z,85.7591
2018-07-15T03:42:55.835Z,86.6839
2018-07-15T03:44:01.042Z,86.9349
2018-07-15T03:45:05.939Z,86.2638
2018-07-15T03:46:11.456Z,86.6839
2018-07-15T03:47:16.636Z,87.186
2018-07-15T03:48:22.068Z,86.0128
2018-07-15T03:49:27.683Z,87.4396
2018-07-15T03:50:32.845Z,86.6839
2018-07-15T03:51:38.509Z,86.9349
2018-07-15T03:52:43.963Z,86.9349
2018-07-15T03:53:49.402Z,86.9349
2018-07-15T03:54:55.099Z,86.0128
2018-07-15T03:55:59.988Z,87.186
2018-07-15T03:57:05.192Z,86.9349
2018-07-15T03:58:10.628Z,87.186
2018-07-15T03:59:15.803Z,87.186
2018-07-15T04:00:21.004Z,87.6906
2018-07-15T04:01:26.461Z,87.4396
2018-07-15T04:02:31.697Z,88.1108
2018-07-15T04:03:37.341Z,88.1108
2018-07-15T04:04:42.875Z,87.186
2018-07-15T04:05:48.416Z,88.1108
2018-07-15T04:06:53.570Z,87.9417
2018-07-15T04:07:58.909Z,87.9417
2018-07-15T04:09:04.073Z,88.6128
2018-07-15T04:10:09.604Z,88.8665
2018-07-15T04:11:14.872Z,87.9417
2018-07-15T04:12:19.733Z,87.4396
2018-07-15T04:13:25.300Z,87.6906
2018-07-15T04:14:30.793Z,87.9417
2018-07-15T04:15:36.690Z,88.1108
2018-07-15T04:16:42.130Z,87.6906
2018-07-15T04:17:47.383Z,87.186
2018-07-15T04:18:52.963Z,87.6906
2018-07-15T04:19:58.118Z,88.6128
2018-07-15T04:21:03.609Z,87.9417
2018-07-15T04:22:09.025Z,88.3618
2018-07-15T04:23:13.949Z,88.3618
2018-07-15T04:24:19.425Z,87.6906
2018-07-15T04:25:24.721Z,88.3618
2018-07-15T04:26:30.163Z,88.1108
2018-07-15T04:27:35.708Z,88.1108
2018-07-15T04:28:40.692Z,88.1108
2018-07-15T04:29:45.561Z,87.9417
2018-07-15T04:30:51.383Z,87.9417
2018-07-15T04:31:56.868Z,87.9417
2018-07-15T04:33:01.747Z,87.9417
2018-07-15T04:34:06.753Z,88.3618
2018-07-15T04:35:12.307Z,87.9417
2018-07-15T04:36:17.477Z,88.3618
2018-07-15T04:37:23.179Z,87.6906
2018-07-15T04:38:28.448Z,88.3618
2018-07-15T04:39:34.236Z,86.9349
2018-07-15T04:40:39.685Z,87.6906
2018-07-15T04:41:44.889Z,87.9417
2018-07-15T04:42:50.730Z,87.9417
2018-07-15T04:43:56.752Z,87.186
2018-07-15T04:45:02.087Z,87.6906
2018-07-15T04:46:06.947Z,87.4396
2018-07-15T04:47:12.098Z,87.6906
2018-07-15T04:48:17.620Z,87.6906
2018-07-15T04:49:23.310Z,87.6906
2018-07-15T04:50:28.189Z,87.4396
2018-07-15T04:51:33.999Z,87.9417
2018-07-15T04:52:39.438Z,87.4396
2018-07-15T04:53:44.316Z,88.1108
2018-07-15T04:54:49.940Z,87.9417
2018-07-15T04:55:55.151Z,87.9417
2018-07-15T04:56:59.997Z,87.4396
2018-07-15T04:58:05.912Z,88.3618
2018-07-15T04:59:10.790Z,87.9417
2018-07-15T05:00:16.271Z,87.9417
2018-07-15T05:01:21.974Z,88.8665
2018-07-15T05:02:27.404Z,87.4396
2018-07-15T05:03:32.782Z,88.3618
2018-07-15T05:04:37.934Z,87.4396
2018-07-15T05:05:43.121Z,88.1108
2018-07-15T05:06:48.630Z,88.1108
2018-07-15T05:07:53.506Z,87.6906
2018-07-15T05:08:58.120Z,87.6906
2018-07-15T05:10:03.252Z,87.6906
2018-07-15T05:11:08.536Z,87.6906
2018-07-15T05:12:13.833Z,87.4396
2018-07-15T05:13:19.237Z,87.186
2018-07-15T05:14:24.689Z,88.1108
2018-07-15T05:15:30.133Z,87.9417
2018-07-15T05:16:35.565Z,88.1108
2018-07-15T05:17:40.151Z,87.9417
2018-07-15T05:18:46.043Z,87.6906
2018-07-15T05:19:51.222Z,87.9417
2018-07-15T05:20:56.174Z,87.6906
2018-07-15T05:22:01.576Z,87.6906
2018-07-15T05:23:06.251Z,87.4396
2018-07-15T05:24:10.883Z,87.6906
2018-07-15T05:25:16.174Z,87.4396
2018-07-15T05:26:21.065Z,87.9417
2018-07-15T05:27:27.048Z,87.9417
2018-07-15T05:28:32.479Z,87.4396
2018-07-15T05:29:37.662Z,87.6906
2018-07-15T05:30:43.306Z,88.3618
2018-07-15T05:31:48.464Z,87.9417
2018-07-15T05:32:53.902Z,86.9349
2018-07-15T05:33:59.779Z,86.9349
2018-07-15T05:35:05.655Z,87.186
2018-07-15T05:36:11.312Z,86.9349
2018-07-15T05:37:17.044Z,87.4396
2018-07-15T05:38:22.551Z,86.5148
2018-07-15T05:39:28.260Z,86.9349
2018-07-15T05:40:33.469Z,86.0128
2018-07-15T05:41:38.916Z,86.6839
2018-07-15T05:42:43.645Z,86.5148
2018-07-15T05:43:49.138Z,86.5148
2018-07-15T05:44:54.051Z,86.2638
2018-07-15T05:45:59.930Z,86.0128
2018-07-15T05:47:05.256Z,86.5148
2018-07-15T05:48:10.508Z,86.0128
2018-07-15T05:49:16.340Z,86.2638
2018-07-15T05:50:21.230Z,87.186
2018-07-15T05:51:41.065Z,87.186
2018-07-15T05:52:46.575Z,86.9349
2018-07-15T05:53:52.037Z,87.186
2018-07-15T05:54:57.904Z,86.5148
2018-07-15T05:56:03.348Z,86.5148
2018-07-15T05:57:08.510Z,86.5148
2018-07-15T05:58:14.231Z,86.2638
2018-07-15T05:59:19.118Z,86.5148
2018-07-15T06:00:24.286Z,86.9349
2018-07-15T06:01:29.620Z,85.7591
2018-07-15T06:02:34.768Z,86.6839
2018-07-15T06:03:40.428Z,86.2638
2018-07-15T06:04:45.708Z,86.5148
2018-07-15T06:05:50.873Z,86.2638
2018-07-15T06:06:56.553Z,85.5081
2018-07-15T06:08:02.041Z,86.5148
2018-07-15T06:09:06.649Z,86.6839
2018-07-15T06:10:12.349Z,86.5148
2018-07-15T06:11:17.825Z,86.0128
2018-07-15T06:12:23.269Z,86.2638
2018-07-15T06:13:29.112Z,86.2638
2018-07-15T06:14:34.303Z,86.9349
2018-07-15T06:15:39.721Z,86.6839
2018-07-15T06:16:44.874Z,87.4396
2018-07-15T06:17:50.397Z,86.6839
2018-07-15T06:18:55.516Z,87.4396
2018-07-15T06:20:00.445Z,86.5148
2018-07-15T06:21:05.723Z,86.0128
2018-07-15T06:22:10.588Z,86.6839
2018-07-15T06:23:15.791Z,87.4396
2018-07-15T06:24:21.275Z,86.9349
2018-07-15T06:25:26.779Z,86.6839
2018-07-15T06:26:31.656Z,86.6839
2018-07-15T06:27:37.119Z,86.5148
2018-07-15T06:28:42.560Z,86.5148
2018-07-15T06:29:48.049Z,86.5148
2018-07-15T06:30:53.830Z,86.2638
2018-07-15T06:31:59.507Z,86.2638
2018-07-15T06:33:04.986Z,86.6839
2018-07-15T06:34:10.581Z,86.6839
2018-07-15T06:35:16.081Z,86.6839
2018-07-15T06:36:21.513Z,87.6061
2018-07-15T06:37:41.571Z,87.4396
2018-07-15T06:38:47.028Z,86.6839
2018-07-15T06:39:52.335Z,86.5148
2018-07-15T06:40:57.516Z,86.6839
2018-07-15T06:42:02.402Z,86.6839
2018-07-15T06:43:07.313Z,86.9349
2018-07-15T06:44:12.489Z,86.9349
2018-07-15T06:45:17.372Z,86.6839
2018-07-15T06:46:22.524Z,87.4396
2018-07-15T06:47:27.413Z,87.4396
2018-07-15T06:48:33.102Z,87.4396
2018-07-15T06:49:38.338Z,87.186
2018-07-15T06:50:43.224Z,86.6839
2018-07-15T06:51:49.012Z,86.6839
2018-07-15T06:52:54.511Z,86.9349
2018-07-15T06:53:59.773Z,87.4396
2018-07-15T06:55:05.403Z,86.5148
2018-07-15T06:56:10.552Z,87.3551
2018-07-15T06:57:15.425Z,86.9349
2018-07-15T06:58:21.182Z,86.9349
2018-07-15T06:59:26.627Z,87.186
2018-07-15T07:00:32.485Z,86.6839
2018-07-15T07:01:38.477Z,87.3551
2018-07-15T07:02:44.007Z,87.3551
2018-07-15T07:03:49.578Z,87.6061
2018-07-15T07:04:55.081Z,87.3551
2018-07-15T07:06:00.253Z,87.3551
2018-07-15T07:07:05.612Z,86.9349
2018-07-15T07:08:10.797Z,86.6839
2018-07-15T07:09:16.245Z,86.0128
2018-07-15T07:10:21.812Z,86.5148
2018-07-15T07:11:26.976Z,86.6839
2018-07-15T07:12:32.714Z,86.9349
2018-07-15T07:13:37.696Z,86.9349
2018-07-15T07:14:43.264Z,86.5148
2018-07-15T07:15:48.820Z,86.0128
2018-07-15T07:16:53.987Z,86.6839
2018-07-15T07:17:59.223Z,86.9349
2018-07-15T07:19:04.912Z,86.6839
2018-07-15T07:20:10.074Z,86.9349
2018-07-15T07:21:14.969Z,86.6839
2018-07-15T07:22:20.907Z,87.104
2018-07-15T07:23:26.058Z,86.9349
2018-07-15T07:24:31.673Z,86.5148
2018-07-15T07:25:36.266Z,87.3551
2018-07-15T07:26:41.490Z,86.5148
2018-07-15T07:27:47.107Z,87.104
2018-07-15T07:28:52.891Z,87.104
2018-07-15T07:29:58.290Z,87.3551
2018-07-15T07:31:03.690Z,86.9349
2018-07-15T07:32:08.843Z,86.9349
2018-07-15T07:33:14.296Z,86.5148
2018-07-15T07:34:19.608Z,86.6839
2018-07-15T07:35:25.308Z,86.6839
2018-07-15T07:36:30.824Z,87.104
2018-07-15T07:37:35.980Z,86.9349
2018-07-15T07:38:41.566Z,87.104
2018-07-15T07:39:47.390Z,87.104
2018-07-15T07:40:52.920Z,87.3551
2018-07-15T07:41:58.373Z,87.6061
2018-07-15T07:43:03.044Z,86.6839
2018-07-15T07:44:08.212Z,87.6061
2018-07-15T07:45:13.364Z,87.104
2018-07-15T07:46:19.214Z,87.3551
2018-07-15T07:47:24.118Z,87.3551
2018-07-15T07:48:30.401Z,87.6061
2018-07-15T07:49:35.765Z,87.6061
2018-07-15T07:50:41.196Z,86.8504
2018-07-15T07:51:46.930Z,87.3551
2018-07-15T07:52:52.423Z,86.2638
2018-07-15T07:53:57.289Z,86.6839
2018-07-15T07:55:02.784Z,86.8504
2018-07-15T07:56:07.732Z,86.8504
2018-07-15T07:57:13.193Z,87.6061
2018-07-15T07:58:19.018Z,87.6061
2018-07-15T07:59:24.546Z,87.6061
2018-07-15T08:00:29.702Z,87.104
2018-07-15T08:01:35.185Z,87.6061
2018-07-15T08:02:40.399Z,87.3551
2018-07-15T08:03:45.691Z,87.3551
2018-07-15T08:04:51.159Z,86.6839
2018-07-15T08:05:56.646Z,87.3551
2018-07-15T08:07:02.366Z,86.8504
2018-07-15T08:08:07.024Z,87.104
2018-07-15T08:09:12.021Z,87.6061
2018-07-15T08:10:17.601Z,87.104
2018-07-15T08:11:23.129Z,87.3551
2018-07-15T08:12:28.695Z,87.104
2018-07-15T08:13:33.564Z,87.6061
2018-07-15T08:14:39.106Z,86.8504
2018-07-15T08:15:44.661Z,87.104
2018-07-15T08:16:50.104Z,87.6061
2018-07-15T08:17:55.319Z,87.6061
2018-07-15T08:19:01.175Z,88.6128
2018-07-15T08:20:06.346Z,88.1108
2018-07-15T08:21:11.838Z,88.1108
2018-07-15T08:22:17.178Z,88.1108
2018-07-15T08:23:22.614Z,87.104
2018-07-15T08:24:28.090Z,87.6061
2018-07-15T08:25:33.548Z,87.3551
2018-07-15T08:26:38.708Z,87.8598
2018-07-15T08:27:44.598Z,87.3551
2018-07-15T08:28:50.273Z,87.3551
2018-07-15T08:29:55.149Z,87.6061
2018-07-15T08:31:00.362Z,88.1108
2018-07-15T08:32:05.559Z,87.6061
2018-07-15T08:33:10.715Z,87.3551
2018-07-15T08:34:16.410Z,87.8598
2018-07-15T08:35:21.295Z,88.8665
2018-07-15T08:36:27.187Z,87.8598
2018-07-15T08:37:31.787Z,88.1108
2018-07-15T08:38:37.258Z,86.8504
2018-07-15T08:39:42.760Z,87.8598
2018-07-15T08:40:48.822Z,87.8598
2018-07-15T08:41:54.505Z,87.8598
2018-07-15T08:43:00.016Z,88.1108
2018-07-15T08:44:05.244Z,87.8598
2018-07-15T08:45:10.400Z,87.3551
2018-07-15T08:46:15.237Z,87.104
2018-07-15T08:47:20.317Z,86.6839
2018-07-15T08:48:40.527Z,87.8598
2018-07-15T08:49:45.715Z,88.1108
2018-07-15T08:50:50.949Z,87.8598
2018-07-15T08:51:56.738Z,87.3551
2018-07-15T08:53:01.931Z,87.6061
2018-07-15T08:54:06.813Z,88.1108
2018-07-15T08:55:12.056Z,88.1108
2018-07-15T08:56:17.498Z,87.6061
2018-07-15T08:57:22.685Z,87.8598
2018-07-15T08:58:28.721Z,88.1108
2018-07-15T08:59:34.274Z,88.6128
2018-07-15T09:00:39.766Z,88.6128
2018-07-15T09:01:44.958Z,88.1108
2018-07-15T09:02:50.479Z,88.8665
2018-07-15T09:03:56.438Z,88.3618
2018-07-15T09:05:01.632Z,89.1175
2018-07-15T09:06:06.214Z,88.1108
2018-07-15T09:07:12.000Z,89.2866
2018-07-15T09:08:17.157Z,89.1175
2018-07-15T09:09:22.619Z,88.3618
2018-07-15T09:10:28.414Z,88.3618
2018-07-15T09:11:33.572Z,89.1175
2018-07-15T09:12:39.421Z,88.6128
2018-07-15T09:13:44.774Z,88.3618
2018-07-15T09:14:50.038Z,89.1175
2018-07-15T09:15:55.687Z,89.1175
2018-07-15T09:17:01.151Z,88.6128
2018-07-15T09:18:06.598Z,89.2866
2018-07-15T09:19:11.441Z,88.8665
2018-07-15T09:20:16.919Z,88.6128
2018-07-15T09:21:22.561Z,89.5376
2018-07-15T09:22:28.352Z,89.0329
2018-07-15T09:23:33.501Z,89.5376
2018-07-15T09:24:38.924Z,89.7887
2018-07-15T09:25:43.510Z,90.0423
2018-07-15T09:26:48.682Z,89.0329
2018-07-15T09:27:53.991Z,89.7887
2018-07-15T09:28:58.936Z,90.0423
2018-07-15T09:30:04.198Z,90.2933
2018-07-15T09:31:09.668Z,89.7887
2018-07-15T09:32:15.117Z,89.5376
2018-07-15T09:33:20.346Z,90.5443
2018-07-15T09:34:25.884Z,89.0329
2018-07-15T09:35:31.069Z,89.7887
2018-07-15T09:36:36.659Z,90.0423
2018-07-15T09:37:42.128Z,89.7887
2018-07-15T09:38:47.552Z,89.5376
2018-07-15T09:39:53.118Z,89.5376
2018-07-15T09:40:58.414Z,89.5376
2018-07-15T09:42:03.578Z,89.2866
2018-07-15T09:43:09.043Z,89.2866
2018-07-15T09:44:13.735Z,88.5309
2018-07-15T09:45:18.920Z,89.0329
2018-07-15T09:46:24.175Z,89.2866
2018-07-15T09:47:29.341Z,89.0329
2018-07-15T09:48:34.530Z,89.2866
2018-07-15T09:49:39.825Z,90.2933
2018-07-15T09:50:44.690Z,90.798
2018-07-15T09:51:50.103Z,89.0329
2018-07-15T09:52:55.548Z,90.0423
2018-07-15T09:54:01.012Z,90.0423
2018-07-15T09:55:06.759Z,89.5376
2018-07-15T09:56:12.027Z,90.0423
2018-07-15T09:57:16.901Z,89.2866
2018-07-15T09:58:23.171Z,89.7887
2018-07-15T09:59:28.620Z,88.7819
2018-07-15T10:00:34.327Z,89.0329
2018-07-15T10:01:39.777Z,89.7887
2018-07-15T10:02:45.244Z,89.7887
2018-07-15T10:03:50.679Z,89.7887
2018-07-15T10:04:55.835Z,89.5376
2018-07-15T10:06:01.063Z,89.7887
2018-07-15T10:07:06.723Z,90.5443
2018-07-15T10:08:11.605Z,90.5443
2018-07-15T10:09:16.999Z,90.5443
2018-07-15T10:10:22.875Z,90.798
2018-07-15T10:11:27.832Z,90.5443
2018-07-15T10:12:33.792Z,89.7887
2018-07-15T10:13:38.671Z,89.7887
2018-07-15T10:14:43.832Z,90.5443
2018-07-15T10:15:49.387Z,90.798
2018-07-15T10:16:54.555Z,91.3001
2018-07-15T10:17:59.993Z,90.798
2018-07-15T10:19:06.468Z,90.798
2018-07-15T10:20:11.510Z,91.3001
2018-07-15T10:21:16.954Z,90.798
2018-07-15T10:22:22.430Z,90.2933
2018-07-15T10:23:27.871Z,91.049
2018-07-15T10:24:33.622Z,91.049
2018-07-15T10:25:38.490Z,90.5443
2018-07-15T10:26:44.402Z,90.798
2018-07-15T10:27:50.141Z,91.049
2018-07-15T10:28:55.617Z,91.049
2018-07-15T10:30:00.797Z,91.049
2018-07-15T10:31:06.338Z,91.5537
2018-07-15T10:32:11.801Z,91.049
2018-07-15T10:33:17.376Z,91.3001
2018-07-15T10:34:23.165Z,91.3001
2018-07-15T10:35:28.686Z,91.5537
2018-07-15T10:36:34.573Z,92.2249
2018-07-15T10:37:39.836Z,91.7202
2018-07-15T10:38:44.797Z,91.7202
2018-07-15T10:39:50.579Z,91.3001
2018-07-15T10:40:55.747Z,91.9738
2018-07-15T10:42:00.917Z,91.7202
2018-07-15T10:43:06.737Z,91.9738
2018-07-15T10:44:12.145Z,91.9738
2018-07-15T10:45:17.315Z,92.7296
2018-07-15T10:46:22.883Z,92.9806
2018-07-15T10:47:27.518Z,92.4759
2018-07-15T10:48:32.727Z,92.2249
2018-07-15T10:49:37.935Z,92.7296
2018-07-15T10:50:42.815Z,92.9806
2018-07-15T10:51:48.473Z,93.4853
2018-07-15T10:52:53.323Z,92.7296
2018-07-15T10:53:58.991Z,92.9806
2018-07-15T10:55:04.409Z,93.4853
2018-07-15T10:56:09.608Z,93.2316
2018-07-15T10:57:15.068Z,92.9806
2018-07-15T10:58:20.408Z,93.4853
2018-07-15T10:59:26.097Z,93.4853
2018-07-15T11:00:31.871Z,93.9873
2018-07-15T11:01:37.317Z,93.4853
2018-07-15T11:02:42.792Z,93.2316
2018-07-15T11:03:48.249Z,93.4853
2018-07-15T11:04:54.239Z,93.4853
2018-07-15T11:05:59.391Z,94.492
2018-07-15T11:07:04.669Z,93.9873
2018-07-15T11:08:10.117Z,93.7363
2018-07-15T11:09:15.307Z,94.492
2018-07-15T11:10:20.250Z,94.241
2018-07-15T11:11:25.411Z,94.7456
2018-07-15T11:12:30.570Z,94.492
2018-07-15T11:13:36.088Z,94.492
2018-07-15T11:14:41.263Z,93.4853
2018-07-15T11:15:46.482Z,94.9967
2018-07-15T11:16:51.381Z,94.9967
2018-07-15T11:17:56.575Z,94.492
2018-07-15T11:19:02.256Z,94.7456
2018-07-15T11:20:06.861Z,95.4168
2018-07-15T11:21:12.373Z,94.7456
2018-07-15T11:22:17.923Z,94.9967
2018-07-15T11:23:23.210Z,93.9873
2018-07-15T11:24:27.745Z,94.492
2018-07-15T11:25:32.954Z,94.492
2018-07-15T11:26:38.398Z,94.7456
2018-07-15T11:27:44.310Z,94.9121
2018-07-15T11:28:49.835Z,95.1658
2018-07-15T11:29:55.044Z,95.1658
2018-07-15T11:31:01.052Z,95.6678
2018-07-15T11:32:06.475Z,94.9121
2018-07-15T11:33:11.749Z,95.1658
2018-07-15T11:34:17.589Z,94.9121
2018-07-15T11:35:22.503Z,94.9121
2018-07-15T11:36:42.416Z,95.6678
2018-07-15T11:37:47.279Z,95.4168
2018-07-15T11:38:52.734Z,95.1658
2018-07-15T11:39:57.627Z,95.9215
2018-07-15T11:41:02.809Z,95.6678
2018-07-15T11:42:07.286Z,95.4168
2018-07-15T11:47:01.973Z,96.4262
2018-07-15T11:48:06.755Z,95.9215
2018-07-15T11:49:12.341Z,95.9215
2018-07-15T11:50:17.518Z,96.4262
2018-07-15T11:51:22.983Z,95.6678
2018-07-15T11:52:28.754Z,96.6772
2018-07-15T11:53:34.205Z,96.6772
2018-07-15T11:54:39.500Z,97.1819
2018-07-15T11:55:44.901Z,96.6772
2018-07-15T11:56:50.060Z,96.6772
2018-07-15T11:57:55.748Z,96.6772
2018-07-15T11:59:00.735Z,96.9282
2018-07-15T12:00:05.884Z,97.1819
2018-07-15T12:01:10.685Z,96.6772
2018-07-15T12:02:15.888Z,97.6839
2018-07-15T12:03:21.059Z,97.4329
2018-07-15T12:04:26.226Z,96.4262
2018-07-15T12:05:31.098Z,97.6839
2018-07-15T12:06:36.915Z,97.4329
2018-07-15T12:07:42.355Z,97.4329
2018-07-15T12:08:47.324Z,97.4329
2018-07-15T12:09:52.832Z,98.1886
2018-07-15T12:10:57.490Z,97.6839
2018-07-15T12:12:02.423Z,98.3577
2018-07-15T12:13:07.673Z,98.1886
2018-07-15T12:14:12.295Z,98.5242
2018-07-15T12:15:17.941Z,99.5335
2018-07-15T12:16:23.795Z,98.1886
2018-07-15T12:17:29.190Z,98.3577
2018-07-15T12:18:34.164Z,98.3577
2018-07-15T12:19:39.681Z,98.3577
2018-07-15T12:20:45.352Z,98.7778
2018-07-15T12:21:50.762Z,99.0288
2018-07-15T12:22:56.215Z,98.5242
2018-07-15T12:24:01.431Z,99.0288
2018-07-15T12:25:06.383Z,99.5335
2018-07-15T12:26:11.826Z,99.0288
2018-07-15T12:27:15.868Z,98.7778
2018-07-15T12:28:22.095Z,99.2825
2018-07-15T12:29:27.857Z,100.0382
2018-07-15T12:30:33.714Z,99.5335
2018-07-15T12:31:39.108Z,99.2825
2018-07-15T12:32:44.549Z,99.5335
2018-07-15T12:33:50.126Z,100.7939
2018-07-15T12:34:55.364Z,99.7872
2018-07-15T12:36:00.526Z,100.2892
2018-07-15T12:37:06.292Z,100.2892
2018-07-15T12:38:11.498Z,100.5429
2018-07-15T12:39:16.670Z,100.7939
2018-07-15T12:40:22.281Z,101.2986
2018-07-15T12:41:27.764Z,100.7939
2018-07-15T12:42:33.095Z,101.2986
2018-07-15T12:43:38.631Z,101.8033
2018-07-15T12:44:43.556Z,101.5523
2018-07-15T12:45:48.683Z,100.7939
2018-07-15T12:46:53.895Z,100.7939
2018-07-15T12:47:59.139Z,101.9724
2018-07-15T12:49:04.969Z,101.8033
2018-07-15T12:50:10.169Z,100.7939
2018-07-15T12:51:15.399Z,102.4744
2018-07-15T12:52:21.120Z,101.2986
2018-07-15T12:53:26.372Z,101.8033
2018-07-15T12:54:31.773Z,101.5523
2018-07-15T12:55:36.925Z,101.8033
2018-07-15T12:56:41.798Z,101.8033
2018-07-15T12:57:47.659Z,102.7281
2018-07-15T12:58:53.102Z,101.5523
2018-07-15T12:59:58.787Z,101.8033
2018-07-15T13:01:04.191Z,102.4744
2018-07-15T13:02:09.365Z,102.2234
2018-07-15T13:03:14.237Z,102.9791
2018-07-15T13:04:19.992Z,102.7281
2018-07-15T13:05:25.248Z,102.7281
2018-07-15T13:06:30.890Z,102.2234
2018-07-15T13:07:36.057Z,102.9791
2018-07-15T13:08:40.722Z,102.4744
2018-07-15T13:09:46.745Z,102.4744
2018-07-15T13:10:51.628Z,102.7281
2018-07-15T13:11:56.655Z,103.2328
2018-07-15T13:13:02.572Z,103.4838
2018-07-15T13:14:08.204Z,103.4838
2018-07-15T13:15:13.066Z,102.7281
2018-07-15T13:16:19.043Z,103.9885
2018-07-15T13:17:24.333Z,103.9885